Time;durP1;ratioP1;P1;durP2;ratioP2;P2;SDS_P1;SDS_P2;PMS_P1;PMS_P2;Temp;Humidity;BMP_temperature;BMP_pressure;BME280_temperature;BME280_humidity;BME280_pressure;Samples;Min_cycle;Max_cycle;Signal;HPM_P1;HPM_P2
2022/04/19 00:03:25;;;;;;;0.88;0.52;;;;;;;19.68;29.76;101380.69;16145980;19;128887;-58
2022/04/19 00:08:48;;;;;;;1.10;0.40;;;;;;;19.66;29.73;101367.06;16145808;19;130205;-58
2022/04/19 00:14:10;;;;;;;0.95;0.50;;;;;;;19.65;29.74;101365.38;16139558;19;129510;-58
2022/04/19 00:19:32;;;;;;;0.40;0.40;;;;;;;19.64;29.73;101355.34;16140965;19;129607;-58
2022/04/19 00:24:55;;;;;;;0.60;0.40;;;;;;;19.62;29.87;101368.63;16146421;19;128967;-58
2022/04/19 00:30:17;;;;;;;0.80;0.50;;;;;;;19.60;29.76;101361.63;16139264;19;130818;-59
2022/04/19 00:35:39;;;;;;;0.73;0.43;;;;;;;19.58;30.03;101364.63;16138073;19;129729;-59
2022/04/19 00:41:01;;;;;;;0.88;0.50;;;;;;;19.57;29.92;101357.41;16141950;19;129433;-58
2022/04/19 00:46:23;;;;;;;0.50;0.40;;;;;;;19.56;29.69;101355.75;16143859;19;129984;-58
2022/04/19 00:51:45;;;;;;;1.95;0.60;;;;;;;19.55;29.80;101350.41;16141568;19;129548;-59
2022/04/19 00:57:07;;;;;;;0.50;0.50;;;;;;;19.52;29.66;101347.03;16136748;19;129609;-59
2022/04/19 01:02:29;;;;;;;1.85;0.50;;;;;;;19.51;30.13;101347.28;16143841;19;129921;-59
2022/04/19 01:07:51;;;;;;;1.08;0.60;;;;;;;19.50;29.80;101342.81;16138217;19;131006;-58
2022/04/19 01:13:18;;;;;;;0.43;0.35;;;;;;;19.51;30.17;101344.50;16136708;19;130658;-58
2022/04/19 01:18:41;;;;;;;1.45;0.68;;;;;;;19.47;30.09;101337.75;16138771;19;129346;-58
2022/04/19 01:24:03;;;;;;;0.68;0.52;;;;;;;19.47;29.93;101340.50;16140757;19;129771;-59
2022/04/19 01:29:26;;;;;;;0.80;0.68;;;;;;;19.45;29.85;101320.47;16139726;19;128906;-58
2022/04/19 01:34:47;;;;;;;0.60;0.40;;;;;;;19.44;29.81;101324.38;16138752;19;129264;-58
2022/04/19 01:40:16;;;;;;;1.25;0.40;;;;;;;19.43;29.72;101317.97;16139595;19;129553;-58
2022/04/19 01:45:38;;;;;;;0.50;0.40;;;;;;;19.42;29.85;101326.53;16138861;19;129436;-58
2022/04/19 01:51:00;;;;;;;1.05;0.60;;;;;;;19.41;29.76;101319.31;16137974;19;130212;-58
2022/04/19 01:56:22;;;;;;;1.35;0.70;;;;;;;19.39;30.05;101327.84;16134230;19;130292;-59
2022/04/19 02:01:44;;;;;;;0.43;0.40;;;;;;;19.38;29.75;101310.38;16138416;19;129559;-59
2022/04/19 02:07:06;;;;;;;1.65;0.50;;;;;;;19.36;30.14;101323.63;16137614;19;130166;-58
2022/04/19 02:12:28;;;;;;;0.38;0.38;;;;;;;19.36;29.77;101322.81;16133204;19;129566;-59
2022/04/19 02:17:50;;;;;;;0.80;0.57;;;;;;;19.34;29.84;101320.25;16131883;19;129567;-58
2022/04/19 02:23:15;;;;;;;0.75;0.47;;;;;;;19.33;30.11;101315.78;16136462;19;129327;-58
2022/04/19 02:28:37;;;;;;;0.70;0.57;;;;;;;19.31;29.77;101315.22;16129796;19;129496;-58
2022/04/19 02:33:59;;;;;;;0.45;0.45;;;;;;;19.30;29.92;101321.84;16133335;19;130362;-59
2022/04/19 02:39:21;;;;;;;0.60;0.60;;;;;;;19.28;29.92;101315.69;16134715;19;129788;-58
2022/04/19 02:44:43;;;;;;;2.35;0.50;;;;;;;19.28;29.95;101314.81;16134003;19;131510;-59
2022/04/19 02:50:05;;;;;;;1.00;0.65;;;;;;;19.28;29.87;101320.38;16130793;19;130303;-58
2022/04/19 02:55:27;;;;;;;0.50;0.50;;;;;;;19.25;29.82;101315.34;16131377;19;130706;-58
2022/04/19 03:00:49;;;;;;;1.85;0.60;;;;;;;19.23;29.81;101318.31;16133110;19;128977;-58
2022/04/19 03:06:12;;;;;;;0.50;0.50;;;;;;;19.24;29.96;101308.09;16120513;19;129989;-58
2022/04/19 03:11:33;;;;;;;1.52;0.60;;;;;;;19.21;30.04;101309.41;16126300;19;129227;-58
2022/04/19 03:16:55;;;;;;;0.70;0.70;;;;;;;19.20;30.21;101310.47;16128125;19;129269;-58
2022/04/19 03:22:17;;;;;;;0.82;0.60;;;;;;;19.19;30.05;101309.63;16131946;19;129387;-58
2022/04/19 03:27:41;;;;;;;1.00;0.60;;;;;;;19.18;29.96;101312.66;16131169;19;129364;-59
2022/04/19 03:33:03;;;;;;;2.30;0.60;;;;;;;19.17;30.06;101311.78;16132673;19;129420;-58
2022/04/19 03:38:25;;;;;;;0.73;0.60;;;;;;;19.16;30.20;101318.41;16126697;19;129221;-59
2022/04/19 03:43:47;;;;;;;0.90;0.65;;;;;;;19.15;29.90;101313.13;16128600;19;129619;-58
2022/04/19 03:49:08;;;;;;;2.63;0.60;;;;;;;19.14;30.07;101315.03;16131790;19;129335;-58
2022/04/19 03:54:34;;;;;;;1.08;0.80;;;;;;;19.13;30.08;101307.81;16129552;19;129309;-58
2022/04/19 03:59:56;;;;;;;1.23;0.80;;;;;;;19.11;30.25;101309.13;16128890;19;130009;-58
2022/04/19 04:05:18;;;;;;;0.82;0.70;;;;;;;19.10;29.83;101313.84;16130042;19;130294;-58
2022/04/19 04:10:40;;;;;;;1.58;0.70;;;;;;;19.10;30.29;101312.97;16129465;19;130432;-58
2022/04/19 04:16:02;;;;;;;1.27;0.75;;;;;;;19.08;30.02;101311.28;16136720;19;129839;-58
2022/04/19 04:21:24;;;;;;;1.45;0.85;;;;;;;19.06;30.23;101302.41;16146196;19;130721;-58
2022/04/19 04:26:46;;;;;;;1.20;0.77;;;;;;;19.05;29.95;101306.25;16145136;19;129072;-59
2022/04/19 04:32:08;;;;;;;1.75;0.80;;;;;;;19.05;30.06;101306.25;16145188;19;130253;-58
2022/04/19 04:37:30;;;;;;;1.02;0.80;;;;;;;19.04;30.25;101304.56;16141315;19;129199;-58
2022/04/19 04:42:51;;;;;;;1.20;0.90;;;;;;;19.03;29.85;101308.41;16144502;19;129694;-58
2022/04/19 04:53:53;;;;;;;1.30;0.77;;;;;;;19.01;30.14;101310.56;16142940;19;129450;-58
2022/04/19 04:59:15;;;;;;;1.52;0.82;;;;;;;18.99;30.06;101318.28;16142897;19;130145;-58
2022/04/19 05:04:36;;;;;;;1.73;0.90;;;;;;;18.99;29.97;101323.81;16137064;19;129483;-58
2022/04/19 05:10:01;;;;;;;2.05;1.05;;;;;;;18.99;29.86;101317.44;16141082;19;129943;-58
2022/04/19 05:15:22;;;;;;;1.67;0.85;;;;;;;18.99;30.11;101321.06;16138505;19;130186;-58
2022/04/19 05:20:44;;;;;;;9.32;1.30;;;;;;;19.07;29.75;101315.19;16142108;19;131819;-58
2022/04/19 05:26:06;;;;;;;4.53;1.40;;;;;;;19.14;29.80;101320.56;16139900;19;129545;-57
2022/04/19 05:31:28;;;;;;;4.97;1.40;;;;;;;19.20;30.03;101322.41;16140184;19;129196;-57
2022/04/19 05:36:50;;;;;;;3.40;0.98;;;;;;;19.25;30.17;101324.47;16135778;19;128947;-57
2022/04/19 05:42:12;;;;;;;3.30;1.00;;;;;;;19.30;30.00;101323.75;16135457;19;130111;-55
2022/04/19 05:47:34;;;;;;;4.43;1.10;;;;;;;19.35;29.98;101333.03;16136365;19;130748;-58
2022/04/19 05:52:55;;;;;;;2.03;1.02;;;;;;;19.41;29.82;101335.94;16140547;19;129505;-57
2022/04/19 05:58:17;;;;;;;4.20;1.15;;;;;;;19.45;29.68;101326.03;16133655;19;129839;-58
2022/04/19 06:09:19;;;;;;;1.73;0.93;;;;;;;19.51;29.72;101319.53;16138546;19;132310;-57
2022/04/19 06:14:41;;;;;;;3.75;1.20;;;;;;;19.53;29.96;101329.28;16134297;19;129525;-57
2022/04/19 06:20:03;;;;;;;3.25;1.02;;;;;;;19.56;29.83;101336.31;16134204;19;130576;-56
2022/04/19 06:25:24;;;;;;;2.65;1.17;;;;;;;19.56;29.81;101332.69;16140030;19;128846;-57
2022/04/19 06:30:46;;;;;;;4.55;1.20;;;;;;;19.59;30.29;101338.56;16137700;19;130259;-58
2022/04/19 06:36:09;;;;;;;3.75;1.30;;;;;;;19.62;29.92;101342.81;16131231;19;129591;-57
2022/04/19 06:41:30;;;;;;;1.90;1.10;;;;;;;19.66;29.89;101344.00;16137582;19;129383;-58
2022/04/19 06:46:52;;;;;;;1.65;1.05;;;;;;;19.69;29.90;101354.63;16136643;19;129514;-57
2022/04/19 06:52:14;;;;;;;2.22;1.10;;;;;;;19.73;30.00;101354.97;16136086;19;129576;-58
2022/04/19 06:57:39;;;;;;;3.25;1.20;;;;;;;19.76;29.94;101366.44;16131162;19;129312;-58
2022/04/19 07:03:01;;;;;;;1.70;1.00;;;;;;;19.80;29.55;101361.25;16135431;19;128764;-55
2022/04/19 07:08:22;;;;;;;3.65;1.20;;;;;;;19.83;29.75;101355.19;16134596;19;129714;-58
2022/04/19 07:13:44;;;;;;;2.55;1.17;;;;;;;19.85;29.63;101366.91;16130445;19;130216;-57
2022/04/19 07:19:06;;;;;;;2.03;1.30;;;;;;;19.88;29.54;101365.59;16131691;19;129885;-57
2022/04/19 07:30:08;;;;;;;1.88;1.10;;;;;;;19.93;29.17;101366.56;16134496;19;130201;-58
2022/04/19 07:35:30;;;;;;;4.45;1.20;;;;;;;19.95;29.45;101366.28;16134031;19;129583;-57
2022/04/19 07:40:52;;;;;;;1.40;1.20;;;;;;;19.96;29.46;101360.47;16133773;19;129961;-57
2022/04/19 07:46:15;;;;;;;2.88;1.15;;;;;;;19.97;29.43;101364.94;16134206;19;129138;-54
2022/04/19 07:51:37;;;;;;;2.05;1.20;;;;;;;19.99;29.53;101364.72;16147577;19;129310;-55
2022/04/19 07:56:59;;;;;;;2.63;1.10;;;;;;;19.99;29.46;101360.03;16145570;19;130651;-57
2022/04/19 08:02:20;;;;;;;1.92;1.30;;;;;;;20.01;29.68;101364.50;16150434;19;130061;-55
2022/04/19 08:07:42;;;;;;;1.77;1.17;;;;;;;19.99;29.49;101362.81;16148333;19;129522;-52
2022/04/19 08:13:04;;;;;;;3.15;1.00;;;;;;;20.01;29.52;101359.78;16144686;19;129020;-51
2022/04/19 08:18:26;;;;;;;4.03;1.10;;;;;;;20.03;29.28;101359.56;16144064;19;129887;-54
2022/04/19 08:23:48;;;;;;;1.83;1.10;;;;;;;20.02;29.24;101364.25;16147962;19;129418;-57
2022/04/19 08:29:11;;;;;;;1.63;1.20;;;;;;;20.02;29.43;101363.41;16146003;19;129547;-53
2022/04/19 08:34:33;;;;;;;2.70;1.23;;;;;;;20.02;29.28;101355.91;16146727;19;130119;-54
2022/04/19 08:39:54;;;;;;;2.17;1.15;;;;;;;20.01;29.45;101340.34;16142059;19;128994;-56
2022/04/19 08:45:18;;;;;;;3.35;1.38;;;;;;;20.01;29.02;101342.28;16145161;19;129223;-55
2022/04/19 08:50:41;;;;;;;3.80;1.20;;;;;;;19.99;29.43;101340.59;16147117;19;129569;-56
2022/04/19 09:01:43;;;;;;;1.67;1.20;;;;;;;19.97;29.09;101339.97;16157102;19;129227;-55
2022/04/19 09:07:05;;;;;;;1.50;1.20;;;;;;;19.97;29.21;101337.19;16187623;19;128477;-57
2022/04/19 09:12:27;;;;;;;2.30;1.33;;;;;;;19.96;29.16;101341.03;16183920;19;131523;-58
2022/04/19 09:17:50;;;;;;;1.98;1.30;;;;;;;19.98;29.44;101340.81;16185005;19;129122;-56
2022/04/19 09:23:11;;;;;;;3.05;1.55;;;;;;;19.97;28.88;101333.56;16188630;19;128958;-57
2022/04/19 09:28:38;;;;;;;2.25;1.42;;;;;;;19.95;29.11;101331.03;16192174;19;128903;-57
2022/04/19 09:34:01;;;;;;;2.15;1.27;;;;;;;19.95;29.12;101336.56;16186238;19;129039;-57
2022/04/19 09:39:27;;;;;;;2.17;1.27;;;;;;;19.94;28.88;101320.19;16183224;19;129518;-57
2022/04/19 09:44:52;;;;;;;2.05;1.38;;;;;;;19.93;29.17;101326.81;16187519;19;129106;-58
2022/04/19 09:50:13;;;;;;;2.35;1.27;;;;;;;19.90;29.16;101313.41;16187644;19;128901;-57
2022/04/19 09:55:35;;;;;;;2.90;1.38;;;;;;;19.89;29.22;101314.50;16186756;19;128909;-57
2022/04/19 10:00:57;;;;;;;2.05;1.20;;;;;;;19.88;29.19;101316.44;16186345;19;129845;-57
2022/04/19 10:12:01;;;;;;;1.95;1.10;;;;;;;19.85;28.93;101322.47;16136119;19;129381;-57
2022/04/19 10:17:24;;;;;;;1.55;1.08;;;;;;;19.83;29.05;101314.41;16138089;19;129715;-55
2022/04/19 10:22:48;;;;;;;2.35;1.13;;;;;;;19.82;29.16;101309.94;16139025;19;129339;-54
2022/04/19 10:28:36;;;;;;;2.67;1.15;;;;;;;19.81;29.22;101308.25;16139862;19;129394;-56
2022/04/19 10:34:02;;;;;;;3.80;1.10;;;;;;;19.82;29.05;101314.63;16140496;19;128980;-55
2022/04/19 10:39:27;;;;;;;2.40;1.38;;;;;;;19.80;29.20;101312.13;16134023;19;128844;-56
2022/04/19 10:44:49;;;;;;;2.58;1.38;;;;;;;19.79;29.02;101304.03;16137526;19;128985;-57
2022/04/19 10:50:11;;;;;;;2.35;1.30;;;;;;;19.78;28.88;101303.19;16137334;19;132030;-56
2022/04/19 10:55:40;;;;;;;2.10;1.00;;;;;;;19.78;28.99;101296.81;16138526;19;129246;-55
2022/04/19 11:01:02;;;;;;;1.88;0.90;;;;;;;19.75;29.29;101292.59;16137712;19;129857;-55
2022/04/19 11:06:34;;;;;;;3.03;1.10;;;;;;;19.77;29.13;101289.56;16138023;19;129570;-57
2022/04/19 11:12:08;;;;;;;2.13;1.00;;;;;;;19.77;29.08;101298.72;16134767;19;128827;-54
2022/04/19 11:17:41;;;;;;;1.55;0.88;;;;;;;19.77;29.06;101290.38;16135377;19;130020;-56
2022/04/19 11:23:20;;;;;;;1.58;1.00;;;;;;;19.76;28.78;101285.09;16139666;19;129244;-57
2022/04/19 11:28:42;;;;;;;2.65;0.90;;;;;;;19.73;29.02;101289.22;16152636;19;129338;-55
2022/04/19 11:34:14;;;;;;;2.67;1.13;;;;;;;19.74;29.15;101290.03;16151647;19;130260;-54
2022/04/19 11:51:10;;;;;;;1.20;0.60;;;;;;;19.73;29.17;101277.25;16148491;19;129702;-56
2022/04/19 11:56:32;;;;;;;1.52;0.75;;;;;;;19.71;28.91;101262.78;16147446;19;129265;-55
2022/04/19 12:01:55;;;;;;;2.55;0.90;;;;;;;19.73;28.86;101266.16;16148536;19;128841;-56
2022/04/19 12:07:17;;;;;;;4.30;1.02;;;;;;;19.72;28.73;101250.56;16148765;19;129961;-55
2022/04/19 12:12:39;;;;;;;1.70;0.80;;;;;;;19.72;29.14;101257.00;16141867;19;128980;-55
2022/04/19 12:18:00;;;;;;;1.60;1.00;;;;;;;19.72;28.87;101251.44;16145642;19;129465;-55
2022/04/19 12:23:23;;;;;;;1.77;0.88;;;;;;;19.74;28.71;101251.19;16143844;19;129476;-56
2022/04/19 12:28:46;;;;;;;2.25;0.82;;;;;;;19.73;28.96;101238.38;16139998;19;130266;-57
2022/04/19 12:34:09;;;;;;;4.00;0.90;;;;;;;19.72;28.91;101231.16;16142773;19;129224;-54
2022/04/19 12:39:31;;;;;;;1.15;0.90;;;;;;;19.73;29.04;101239.25;16141212;19;129670;-55
2022/04/19 12:45:07;;;;;;;2.40;0.82;;;;;;;19.74;29.04;101228.97;16144202;19;129466;-56
2022/04/19 12:50:29;;;;;;;;;;;;;;;19.68;28.72;101225.25;16147030;19;129390;-58
2022/04/19 12:55:51;;;;;;;2.33;0.80;;;;;;;19.71;28.97;101221.13;16144981;19;129027;-57
2022/04/19 13:01:13;;;;;;;2.33;0.73;;;;;;;19.69;28.94;101218.63;16146110;19;129671;-58
2022/04/19 13:12:19;;;;;;;0.80;0.60;;;;;;;19.68;29.18;101208.59;16140668;19;129459;-57
2022/04/19 13:17:42;;;;;;;1.30;0.73;;;;;;;19.69;29.06;101205.56;16138362;19;129977;-56
2022/04/19 13:23:04;;;;;;;1.02;0.80;;;;;;;19.69;28.67;101205.56;16141941;19;129356;-56
2022/04/19 13:28:26;;;;;;;1.20;0.88;;;;;;;19.69;29.06;101197.22;16142240;19;129207;-57
2022/04/19 13:33:47;;;;;;;2.35;0.88;;;;;;;19.71;29.10;101201.69;16140327;19;129547;-57
2022/04/19 13:39:09;;;;;;;1.45;0.80;;;;;;;19.73;28.77;101188.41;16134732;19;129396;-52
2022/04/19 13:44:31;;;;;;;1.10;0.80;;;;;;;19.70;28.86;101195.31;16138183;19;129931;-55
2022/04/19 13:49:53;;;;;;;2.28;0.80;;;;;;;19.70;29.00;101184.22;16135335;19;129489;-57
2022/04/19 13:55:18;;;;;;;1.13;0.88;;;;;;;19.72;28.86;101181.19;16138807;19;128921;-55
2022/04/19 14:00:40;;;;;;;1.35;0.55;;;;;;;19.71;29.07;101182.28;16129619;19;129659;-58
2022/04/19 14:06:01;;;;;;;0.93;0.55;;;;;;;19.69;29.14;101183.34;16134707;19;129117;-58
2022/04/19 14:11:24;;;;;;;1.48;0.60;;;;;;;19.70;28.95;101184.22;16129034;19;129220;-56
2022/04/19 14:16:46;;;;;;;2.13;0.50;;;;;;;19.69;28.69;101180.59;16132057;19;129220;-54
2022/04/19 14:22:08;;;;;;;0.95;0.70;;;;;;;19.72;28.65;101181.19;16133146;19;129796;-56
2022/04/19 14:27:30;;;;;;;4.70;1.13;;;;;;;19.69;28.83;101174.19;16134839;19;129413;-56
2022/04/19 14:38:32;;;;;;;2.08;1.50;;;;;;;19.67;28.97;101162.50;16132570;19;131009;-56
2022/04/19 14:44:00;;;;;;;2.97;1.45;;;;;;;19.65;28.73;101173.84;16135891;19;129436;-55
2022/04/19 14:49:24;;;;;;;2.15;1.70;;;;;;;19.64;28.54;101166.63;16134269;19;129287;-55
2022/04/19 14:54:47;;;;;;;1.85;1.30;;;;;;;19.63;28.60;101162.16;16133214;19;128909;-56
2022/04/19 15:00:10;;;;;;;3.83;1.50;;;;;;;19.62;28.36;101165.19;16127637;19;129630;-58
2022/04/19 15:05:32;;;;;;;2.05;1.23;;;;;;;19.62;28.34;101151.31;16134592;19;128879;-57
2022/04/19 15:10:53;;;;;;;3.03;1.30;;;;;;;19.63;28.66;101150.22;16130184;19;130277;-55
2022/04/19 15:16:15;;;;;;;3.22;1.60;;;;;;;19.62;28.70;101148.53;16129383;19;130176;-55
2022/04/19 15:21:40;;;;;;;3.17;1.77;;;;;;;19.61;28.25;101153.22;16126830;19;129245;-54
2022/04/19 15:27:02;;;;;;;6.50;1.85;;;;;;;19.58;28.13;101137.06;16126239;19;129815;-56
2022/04/19 15:32:24;;;;;;;4.68;1.70;;;;;;;19.61;28.30;101149.63;16132148;19;129207;-55
2022/04/19 15:37:46;;;;;;;2.63;1.35;;;;;;;19.64;28.43;101149.97;16130860;19;128839;-56
2022/04/19 15:43:08;;;;;;;7.68;1.48;;;;;;;19.66;28.40;101142.25;16130407;19;129636;-57
2022/04/19 15:48:31;;;;;;;2.95;1.60;;;;;;;19.67;28.46;101155.03;16133629;19;129506;-57
2022/04/19 15:53:53;;;;;;;5.80;1.63;;;;;;;19.64;28.42;101163.84;16131007;19;129861;-57
2022/04/19 15:59:15;;;;;;;3.80;1.98;;;;;;;19.62;27.93;101152.16;16124168;19;129062;-58
2022/04/19 16:04:36;;;;;;;4.45;1.70;;;;;;;19.65;28.49;101154.44;16125421;19;131247;-56
2022/04/19 16:09:58;;;;;;;4.47;1.45;;;;;;;19.69;28.20;101154.78;16133253;19;129944;-56
2022/04/19 16:15:21;;;;;;;4.22;1.52;;;;;;;19.67;28.39;101152.25;16137340;19;129391;-56
2022/04/19 16:26:24;;;;;;;11.25;2.40;;;;;;;19.69;28.60;101144.50;16141594;19;129472;-55
2022/04/19 16:31:46;;;;;;;3.38;2.00;;;;;;;19.75;28.70;101152.94;16142744;19;129587;-55
2022/04/19 16:37:08;;;;;;;4.35;2.10;;;;;;;19.78;28.96;101152.44;16142238;19;130196;-59
2022/04/19 16:42:30;;;;;;;9.07;2.00;;;;;;;19.80;28.96;101159.44;16138296;19;129395;-57
2022/04/19 16:47:52;;;;;;;4.53;1.65;;;;;;;19.81;28.98;101151.97;16142548;19;128953;-56
2022/04/19 16:53:14;;;;;;;4.32;2.20;;;;;;;19.81;29.03;101160.28;16143122;19;130875;-58
2022/04/19 16:58:35;;;;;;;14.85;7.22;;;;;;;19.80;29.65;101155.81;16144459;19;129302;-58
2022/04/19 17:03:58;;;;;;;9.43;3.55;;;;;;;19.80;31.28;101150.28;16141176;19;129307;-59
2022/04/19 17:09:24;;;;;;;29.80;9.95;;;;;;;19.80;31.14;101156.66;16136657;19;130549;-58
2022/04/19 17:14:46;;;;;;;37.85;12.88;;;;;;;19.80;31.33;101156.66;16137883;19;130711;-57
2022/04/19 17:20:08;;;;;;;29.30;10.30;;;;;;;19.83;31.52;101155.31;16135666;19;129940;-59
2022/04/19 17:25:30;;;;;;;32.22;9.40;;;;;;;19.84;31.81;101157.84;16137896;19;130109;-58
2022/04/19 17:30:54;;;;;;;29.17;8.93;;;;;;;19.86;31.52;101165.09;16138399;19;129108;-56
2022/04/19 17:36:16;;;;;;;21.48;8.02;;;;;;;19.83;31.52;101164.50;16138133;19;129258;-56
2022/04/19 17:41:38;;;;;;;18.77;6.88;;;;;;;19.83;31.48;101166.41;16131924;19;129349;-56
2022/04/19 17:47:00;;;;;;;28.63;7.43;;;;;;;19.82;31.45;101162.81;16138331;19;130479;-56
2022/04/19 17:58:03;;;;;;;21.80;6.45;;;;;;;19.79;31.54;101177.16;16131709;19;130454;-56
2022/04/19 18:03:24;;;;;;;14.05;5.32;;;;;;;19.79;31.47;101191.06;16136184;19;131003;-56
2022/04/19 18:08:47;;;;;;;13.63;4.70;;;;;;;19.77;31.20;101200.72;16133898;19;129735;-55
2022/04/19 18:14:08;;;;;;;14.05;4.38;;;;;;;19.76;31.17;101204.59;16128188;19;130510;-56
2022/04/19 18:19:31;;;;;;;13.63;5.20;;;;;;;19.74;31.57;101215.94;16136352;19;131308;-58
2022/04/19 18:25:09;;;;;;;10.98;4.13;;;;;;;19.76;31.41;101224.03;16136746;19;130803;-56
2022/04/19 18:30:34;;;;;;;10.40;3.60;;;;;;;19.78;30.94;101230.19;16129449;19;131414;-55
2022/04/19 18:35:56;;;;;;;9.30;3.30;;;;;;;19.94;30.99;101236.88;16128406;19;129028;-59
2022/04/19 18:41:18;;;;;;;10.70;3.22;;;;;;;20.20;30.74;101243.78;16130663;19;130314;-58
2022/04/19 18:46:40;;;;;;;9.07;2.22;;;;;;;20.47;30.16;101254.25;16134503;19;129073;-59
2022/04/19 18:52:02;;;;;;;6.70;2.70;;;;;;;20.69;30.20;101264.63;16131321;19;129234;-61
2022/04/19 18:57:23;;;;;;;6.95;2.33;;;;;;;20.88;29.47;101271.69;16130296;19;129113;-63
2022/04/19 19:02:47;;;;;;;8.95;2.17;;;;;;;21.03;29.62;101273.03;16130231;19;129741;-57
2022/04/19 19:08:17;;;;;;;9.93;2.35;;;;;;;21.13;29.56;101278.72;16117205;19;137373;-60
2022/04/19 19:13:40;;;;;;;8.55;1.90;;;;;;;21.21;29.27;101292.19;16126734;19;129327;-61
2022/04/19 19:19:03;;;;;;;8.48;2.10;;;;;;;21.27;29.39;101300.63;16127444;19;131078;-61
2022/04/19 19:24:25;;;;;;;4.45;1.77;;;;;;;21.25;29.22;101309.22;16129572;19;130727;-61
2022/04/19 19:29:47;;;;;;;5.15;1.42;;;;;;;21.22;29.44;101315.31;16129605;19;129382;-60
2022/04/19 19:35:10;;;;;;;4.72;1.40;;;;;;;21.17;29.09;101323.56;16133512;19;129619;-61
2022/04/19 19:40:31;;;;;;;7.93;1.75;;;;;;;21.11;29.39;101331.00;16130529;19;129588;-64
2022/04/19 19:45:53;;;;;;;4.00;1.42;;;;;;;21.05;29.67;101337.56;16141086;19;131184;-60
2022/04/19 19:51:15;;;;;;;6.82;1.15;;;;;;;21.00;29.41;101334.72;16144279;19;129799;-64
2022/04/19 19:56:38;;;;;;;10.40;1.40;;;;;;;20.93;29.51;101334.88;16142023;19;130565;-60
2022/04/19 20:02:00;;;;;;;4.57;1.30;;;;;;;20.87;29.72;101342.28;16136472;19;131417;-61
2022/04/19 20:07:22;;;;;;;6.35;1.17;;;;;;;20.88;29.89;101343.13;16136137;19;131808;-59
2022/04/19 20:12:44;;;;;;;3.20;1.20;;;;;;;20.97;29.50;101347.19;16135780;19;130395;-58
2022/04/19 20:18:06;;;;;;;11.80;1.25;;;;;;;21.09;29.77;101349.88;16141291;19;130631;-59
2022/04/19 20:23:28;;;;;;;2.63;0.88;;;;;;;21.19;29.41;101355.59;16143427;19;129321;-64
2022/04/19 20:28:50;;;;;;;3.67;1.00;;;;;;;21.30;29.54;101362.19;16145786;19;130003;-60
2022/04/19 20:34:11;;;;;;;2.67;0.90;;;;;;;21.37;29.07;101357.28;16141911;19;130025;-60
2022/04/19 20:39:33;;;;;;;3.22;0.90;;;;;;;21.43;29.44;101371.28;16142320;19;129470;-60
2022/04/19 20:44:55;;;;;;;2.25;0.85;;;;;;;21.43;28.98;101369.31;16146071;19;129751;-59
2022/04/19 20:50:17;;;;;;;3.35;0.70;;;;;;;21.40;29.07;101372.66;16141863;19;128929;-61
2022/04/19 20:55:38;;;;;;;4.82;0.90;;;;;;;21.35;29.57;101375.34;16143013;19;130011;-60
2022/04/19 21:01:03;;;;;;;2.28;0.70;;;;;;;21.30;29.25;101372.47;16138773;19;129469;-61
2022/04/19 21:06:24;;;;;;;1.67;0.55;;;;;;;21.22;29.53;101366.22;16140241;19;130445;-60
2022/04/19 21:11:47;;;;;;;4.18;0.73;;;;;;;21.15;29.39;101370.28;16138099;19;129017;-60
2022/04/19 21:17:09;;;;;;;0.95;0.60;;;;;;;21.08;29.72;101367.66;16135507;19;130231;-61
2022/04/19 21:22:31;;;;;;;4.90;0.50;;;;;;;21.01;29.61;101361.44;16135748;19;129456;-59
2022/04/19 21:27:53;;;;;;;6.10;0.73;;;;;;;20.95;29.52;101363.28;16136974;19;129323;-59
2022/04/19 21:33:15;;;;;;;4.45;1.13;;;;;;;20.84;29.87;101367.00;16141362;19;129564;-60
2022/04/19 21:38:38;;;;;;;3.42;0.70;;;;;;;20.76;29.50;101368.22;16136350;19;129539;-59
2022/04/19 21:44:00;;;;;;;3.80;0.80;;;;;;;20.67;29.40;101369.72;16138368;19;129471;-59
2022/04/19 21:49:22;;;;;;;5.15;0.73;;;;;;;20.57;29.65;101371.19;16134947;19;129661;-59
2022/04/19 21:54:44;;;;;;;4.72;0.70;;;;;;;20.53;29.61;101371.94;16136139;19;131605;-60
2022/04/19 22:00:06;;;;;;;1.80;0.50;;;;;;;20.48;29.42;101382.97;16137531;19;129363;-59
2022/04/19 22:05:28;;;;;;;2.47;0.60;;;;;;;20.42;29.65;101384.81;16139209;19;129418;-59
2022/04/19 22:10:50;;;;;;;1.20;0.45;;;;;;;20.38;29.53;101373.31;16131514;19;129632;-59
2022/04/19 22:16:12;;;;;;;3.47;0.80;;;;;;;20.35;29.31;101382.16;16137575;19;129285;-59
2022/04/19 22:21:34;;;;;;;3.33;0.82;;;;;;;20.32;29.25;101379.00;16133415;19;129101;-59
2022/04/19 22:26:56;;;;;;;1.42;0.65;;;;;;;20.27;29.57;101383.41;16133489;19;129528;-59
2022/04/19 22:32:18;;;;;;;0.50;0.40;;;;;;;20.24;29.44;101380.28;16133496;19;129428;-59
2022/04/19 22:37:39;;;;;;;4.97;0.50;;;;;;;20.21;29.48;101383.53;16136326;19;129565;-59
2022/04/19 22:43:01;;;;;;;1.20;0.50;;;;;;;20.19;29.22;101377.38;16128884;19;128860;-59
2022/04/19 22:48:23;;;;;;;1.63;0.50;;;;;;;20.15;29.47;101377.03;16136073;19;129456;-59
2022/04/19 22:53:45;;;;;;;0.43;0.40;;;;;;;20.12;29.08;101371.97;16135465;19;129666;-59
2022/04/19 22:59:07;;;;;;;2.45;0.70;;;;;;;20.09;28.95;101375.22;16134092;19;128821;-59
2022/04/19 23:04:28;;;;;;;0.40;0.40;;;;;;;20.07;29.00;101382.94;16135787;19;129405;-59
2022/04/19 23:09:50;;;;;;;0.47;0.40;;;;;;;20.03;29.17;101374.28;16135867;19;130754;-59
2022/04/19 23:15:12;;;;;;;0.70;0.40;;;;;;;20.01;29.32;101372.84;16127302;19;130970;-59
2022/04/19 23:20:33;;;;;;;2.13;0.40;;;;;;;19.99;28.97;101373.06;16153690;19;129617;-59
2022/04/19 23:31:41;;;;;;;1.73;0.40;;;;;;;19.93;28.79;101360.13;16164460;19;129163;-59
2022/04/19 23:37:03;;;;;;;0.90;0.47;;;;;;;19.89;29.17;101354.22;16167806;19;129504;-59
2022/04/19 23:42:26;;;;;;;1.83;0.50;;;;;;;19.88;29.01;101354.50;16163192;19;129093;-59
2022/04/19 23:47:48;;;;;;;1.27;0.45;;;;;;;19.85;28.55;101353.03;16166733;19;129323;-59
2022/04/19 23:53:13;;;;;;;0.63;0.40;;;;;;;19.84;28.88;101359.66;16167514;19;129529;-59
2022/04/19 23:58:35;;;;;;;0.95;0.50;;;;;;;19.83;28.56;101355.19;16164921;19;129936;-59
